createdAt,value
2023-07-25T00:00:40.176Z,99652.41
2023-07-25T00:03:43.271Z,99650.84
2023-07-25T00:06:46.193Z,99638.47
2023-07-25T00:09:49.607Z,99653.94
2023-07-25T00:12:54.545Z,99654.28
2023-07-25T00:15:57.427Z,99652.88
2023-07-25T00:19:00.219Z,99651.75
2023-07-25T00:22:03.685Z,99668.81
2023-07-25T00:25:07.573Z,99763.09
2023-07-25T00:28:10.481Z,99855.72
2023-07-25T00:31:13.492Z,99850.59
2023-07-25T00:34:16.276Z,99793.78
2023-07-25T00:37:19.030Z,99809.59
2023-07-25T00:40:24.279Z,99820.75
2023-07-25T00:43:27.182Z,99794.44
2023-07-25T00:46:30.135Z,99801.78
2023-07-25T00:49:32.922Z,99813.25
2023-07-25T00:52:35.744Z,99827.31
2023-07-25T00:55:39.334Z,99831.28
2023-07-25T00:58:42.605Z,99818.22
2023-07-25T01:01:45.572Z,99823.31
2023-07-25T01:04:48.502Z,99818.94
2023-07-25T01:07:51.298Z,99832.69
2023-07-25T01:10:54.848Z,99835.41
2023-07-25T01:13:57.989Z,99857.19
2023-07-25T01:17:22.337Z,99865.19
2023-07-25T01:20:27.048Z,99868.38
2023-07-25T01:23:30.752Z,99840.28
2023-07-25T01:26:33.518Z,99804.09
2023-07-25T01:29:36.352Z,99796.75
2023-07-25T01:32:39.620Z,99792.28
2023-07-25T01:35:42.852Z,99778.72
2023-07-25T01:38:45.745Z,99762.44
2023-07-25T01:41:48.525Z,99753.81
2023-07-25T01:44:51.289Z,99783.16
2023-07-25T01:47:54.610Z,99778.03
2023-07-25T01:50:57.861Z,99817.91
2023-07-25T01:54:00.794Z,99819.63
2023-07-25T01:57:04.525Z,99814.34
2023-07-25T02:00:08.140Z,99817.69
2023-07-25T02:03:19.587Z,99814.97
2023-07-25T02:06:22.384Z,99804.94
2023-07-25T02:09:25.197Z,99782.94
2023-07-25T02:12:30.291Z,99797.41
2023-07-25T02:15:33.165Z,99794.94
2023-07-25T02:18:36.155Z,99802.72
2023-07-25T02:21:39.372Z,99772.28
2023-07-25T02:24:42.187Z,99783.25
2023-07-25T02:27:45.032Z,99766.63
2023-07-25T02:30:48.104Z,99775.66
2023-07-25T02:33:50.978Z,99759.41
2023-07-25T02:36:53.731Z,99764.78
2023-07-25T02:39:56.477Z,99735.44
2023-07-25T02:42:59.366Z,99740.03
2023-07-25T02:46:03.133Z,99725.97
2023-07-25T02:49:06.456Z,99726.59
2023-07-25T02:52:09.681Z,99735.63
2023-07-25T02:55:12.782Z,99738.84
2023-07-25T02:58:15.759Z,99743.56
2023-07-25T03:01:18.921Z,99730.78
2023-07-25T03:04:21.989Z,99718.88
2023-07-25T03:07:24.820Z,99708.97
2023-07-25T03:10:28.230Z,99698.66
2023-07-25T03:13:30.983Z,99687.50
2023-07-25T03:16:34.593Z,99693.03
2023-07-25T03:19:37.608Z,99690.00
2023-07-25T03:22:40.439Z,99698.50
2023-07-25T03:25:43.194Z,99696.88
2023-07-25T03:28:46.047Z,99693.50
2023-07-25T03:31:48.844Z,99685.72
2023-07-25T03:34:51.729Z,99681.13
2023-07-25T03:37:54.554Z,99673.25
2023-07-25T03:40:57.270Z,99676.31
2023-07-25T03:44:00.078Z,99684.78
2023-07-25T03:47:03.112Z,99676.97
2023-07-25T03:50:06.478Z,99673.81
2023-07-25T03:53:09.217Z,99666.59
2023-07-25T03:56:13.946Z,99691.41
2023-07-25T03:59:17.742Z,99684.31
2023-07-25T04:02:20.997Z,99677.56
2023-07-25T04:05:23.952Z,99673.81
2023-07-25T04:08:26.827Z,99672.22
2023-07-25T04:11:30.123Z,99696.28
2023-07-25T04:14:33.408Z,99696.41
2023-07-25T04:17:37.770Z,99681.91
2023-07-25T04:20:40.541Z,99669.03
2023-07-25T04:23:44.343Z,99664.28
2023-07-25T04:26:47.106Z,99637.84
2023-07-25T04:29:49.990Z,99646.84
2023-07-25T04:32:52.875Z,99649.81
2023-07-25T04:35:56.167Z,99650.88
2023-07-25T04:38:58.953Z,99652.91
2023-07-25T04:42:01.712Z,99653.41
2023-07-25T04:45:05.921Z,99653.84
2023-07-25T04:48:08.940Z,99633.50
2023-07-25T04:51:11.713Z,99633.22
2023-07-25T04:54:14.596Z,99638.56
2023-07-25T04:57:17.476Z,99627.53
2023-07-25T05:00:20.734Z,99634.97
2023-07-25T05:03:23.870Z,99623.06
2023-07-25T05:06:26.728Z,99631.09
2023-07-25T05:09:29.486Z,99625.50
2023-07-25T05:12:32.269Z,99626.75
2023-07-25T05:15:35.231Z,99624.84
2023-07-25T05:18:38.256Z,99622.69
2023-07-25T05:21:43.491Z,99639.84
2023-07-25T05:24:46.860Z,99641.50
2023-07-25T05:27:49.727Z,99646.25
2023-07-25T05:30:52.427Z,99638.28
2023-07-25T05:33:55.205Z,99649.81
2023-07-25T05:36:58.066Z,99664.09
2023-07-25T05:40:00.810Z,99658.53
2023-07-25T05:43:04.501Z,99660.84
2023-07-25T05:46:09.014Z,99654.13
2023-07-25T05:49:11.796Z,99651.53
2023-07-25T05:52:14.537Z,99658.56
2023-07-25T05:55:17.398Z,99655.88
2023-07-25T05:58:20.173Z,99667.09
2023-07-25T06:01:22.972Z,99661.94
2023-07-25T06:04:25.889Z,99647.59
2023-07-25T06:07:28.650Z,99642.69
2023-07-25T06:10:31.904Z,99646.09
2023-07-25T06:13:35.288Z,99657.94
2023-07-25T06:16:38.246Z,99661.31
2023-07-25T06:19:41.060Z,99674.88
2023-07-25T06:22:43.998Z,99674.59
2023-07-25T06:25:46.883Z,99673.00
2023-07-25T06:28:49.712Z,99667.66
2023-07-25T06:31:52.709Z,99654.28
2023-07-25T06:34:55.611Z,99645.09
2023-07-25T06:37:58.389Z,99620.94
2023-07-25T06:41:01.236Z,99636.78
2023-07-25T06:44:04.238Z,99628.63
2023-07-25T06:47:07.541Z,99623.41
2023-07-25T06:50:10.628Z,99624.69
2023-07-25T06:53:14.478Z,99600.06
2023-07-25T06:56:17.753Z,99587.31
2023-07-25T06:59:20.800Z,99614.38
2023-07-25T07:02:27.029Z,99607.63
2023-07-25T07:05:31.603Z,99582.94
2023-07-25T07:08:35.851Z,99572.38
2023-07-25T07:15:25.859Z,99577.75
2023-07-25T07:18:28.879Z,99570.22
2023-07-25T07:21:31.992Z,99576.91
2023-07-25T07:24:35.065Z,99566.69
2023-07-25T07:27:37.947Z,99557.34
2023-07-25T07:30:41.159Z,99552.09
2023-07-25T07:33:44.112Z,99534.84
2023-07-25T07:36:46.889Z,99554.00
2023-07-25T07:39:49.699Z,99554.47
2023-07-25T07:42:52.654Z,99540.84
2023-07-25T07:45:58.283Z,99551.44
2023-07-25T07:49:01.580Z,99548.81
2023-07-25T07:52:15.733Z,99540.47
2023-07-25T07:55:25.661Z,99539.25
2023-07-25T07:58:28.398Z,99533.78
2023-07-25T08:01:31.346Z,99541.38
2023-07-25T08:04:36.293Z,99544.94
2023-07-25T08:07:39.620Z,99536.69
2023-07-25T08:10:42.692Z,99551.13
2023-07-25T08:13:45.570Z,99547.31
2023-07-25T08:16:48.433Z,99566.53
2023-07-25T08:19:54.002Z,99587.41
2023-07-25T08:22:58.533Z,99576.22
2023-07-25T08:26:04.809Z,99543.25
2023-07-25T08:29:07.628Z,99490.50
2023-07-25T08:32:11.461Z,99474.03
2023-07-25T08:35:14.872Z,99460.22
2023-07-25T08:38:17.720Z,99472.97
2023-07-25T08:41:26.677Z,99473.56
2023-07-25T08:44:29.872Z,99483.91
2023-07-25T08:47:34.911Z,99485.34
2023-07-25T08:50:39.474Z,99496.84
2023-07-25T08:53:51.402Z,99504.25
2023-07-25T08:56:54.752Z,99518.63
2023-07-25T08:59:58.874Z,99515.88
2023-07-25T09:03:02.863Z,99503.81
2023-07-25T09:06:16.750Z,99495.75
2023-07-25T09:09:20.106Z,99493.88
2023-07-25T09:12:23.158Z,99497.47
2023-07-25T09:15:26.206Z,99507.34
2023-07-25T09:18:29.317Z,99524.38
2023-07-25T09:21:32.456Z,99523.16
2023-07-25T09:24:40.317Z,99520.56
2023-07-25T09:27:47.640Z,99509.72
2023-07-25T09:30:52.697Z,99519.78
2023-07-25T09:33:57.503Z,99536.16
2023-07-25T09:37:05.382Z,99551.38
2023-07-25T09:40:12.549Z,99567.44
2023-07-25T09:43:28.574Z,99565.69
2023-07-25T09:46:31.344Z,99580.03
2023-07-25T09:49:34.645Z,99593.25
2023-07-25T09:52:44.331Z,99576.75
2023-07-25T09:55:47.188Z,99552.09
2023-07-25T10:02:05.341Z,99566.59
2023-07-25T10:05:08.848Z,99574.25
2023-07-25T10:08:17.259Z,99582.88
2023-07-25T10:11:20.212Z,99587.91
2023-07-25T10:14:23.611Z,99582.63
2023-07-25T10:17:26.850Z,99586.91
2023-07-25T10:20:29.878Z,99580.59
2023-07-25T10:23:37.670Z,99576.78
2023-07-25T10:27:02.004Z,99571.97
2023-07-25T10:30:25.740Z,99573.97
2023-07-25T10:33:28.790Z,99577.72
2023-07-25T10:36:31.641Z,99567.94
2023-07-25T10:39:34.802Z,99553.13
2023-07-25T10:46:01.069Z,99577.91
2023-07-25T10:49:21.909Z,99581.50
2023-07-25T10:52:44.903Z,99557.69
2023-07-25T10:56:09.139Z,99528.63
2023-07-25T10:59:14.077Z,99474.66
2023-07-25T11:02:38.294Z,99464.22
2023-07-25T11:05:41.996Z,99496.25
2023-07-25T11:08:45.242Z,99548.00
2023-07-25T11:11:50.488Z,99564.75
2023-07-25T11:14:56.154Z,99556.28
2023-07-25T11:18:08.348Z,99534.41
2023-07-25T11:21:11.508Z,99515.13
2023-07-25T11:24:16.148Z,99530.06
2023-07-25T11:27:19.447Z,99557.88
2023-07-25T11:30:23.140Z,99605.28
2023-07-25T11:33:26.743Z,99703.00
2023-07-25T11:36:39.534Z,99767.56
2023-07-25T11:39:43.478Z,99752.56
2023-07-25T11:42:48.781Z,99709.09
2023-07-25T11:45:51.666Z,99700.84
2023-07-25T11:48:55.055Z,99691.03
2023-07-25T11:51:57.788Z,99694.53
2023-07-25T11:55:02.744Z,99697.22
2023-07-25T11:58:05.637Z,99701.03
2023-07-25T12:01:11.614Z,99685.09
2023-07-25T12:04:17.199Z,99677.44
2023-07-25T12:07:22.431Z,99683.00
2023-07-25T12:10:33.094Z,99658.78
2023-07-25T12:13:54.408Z,99641.06
2023-07-25T12:17:04.441Z,99610.94
2023-07-25T12:20:14.330Z,99609.38
2023-07-25T12:23:17.406Z,99577.66
2023-07-25T12:26:23.153Z,99556.66
2023-07-25T12:29:26.417Z,99546.00
2023-07-25T12:32:32.497Z,99540.25
2023-07-25T12:35:35.477Z,99527.03
2023-07-25T12:38:38.292Z,99502.19
2023-07-25T12:41:43.728Z,99486.25
2023-07-25T12:44:46.503Z,99468.56
2023-07-25T12:47:49.697Z,99457.50
2023-07-25T12:50:52.565Z,99437.69
2023-07-25T12:53:56.981Z,99409.34
2023-07-25T12:57:00.008Z,99388.88
2023-07-25T13:00:07.047Z,99415.19
2023-07-25T13:03:10.738Z,99467.50
2023-07-25T13:06:13.707Z,99440.72
2023-07-25T13:09:16.553Z,99432.59
2023-07-25T13:12:19.489Z,99409.00
2023-07-25T13:15:22.494Z,99362.50
2023-07-25T13:18:30.397Z,99352.66
2023-07-25T13:21:36.646Z,99391.19
2023-07-25T13:24:39.812Z,99390.97
2023-07-25T13:27:44.226Z,99372.84
2023-07-25T13:30:47.837Z,99397.41
2023-07-25T13:33:51.066Z,99413.19
2023-07-25T13:36:54.204Z,99385.06
2023-07-25T13:39:57.914Z,99402.66
2023-07-25T13:43:04.174Z,99442.66
2023-07-25T13:46:10.375Z,99416.13
2023-07-25T13:49:13.795Z,99412.66
2023-07-25T13:52:16.544Z,99410.84
2023-07-25T13:55:19.258Z,99413.44
2023-07-25T13:58:24.682Z,99439.44
2023-07-25T14:01:27.701Z,99504.66
2023-07-25T14:04:30.601Z,99391.84
2023-07-25T14:07:33.573Z,99466.44
2023-07-25T14:10:37.461Z,99457.50
2023-07-25T14:13:40.330Z,99447.91
2023-07-25T14:16:43.136Z,99442.25
2023-07-25T14:19:46.149Z,99441.28
2023-07-25T14:22:48.887Z,99424.06
2023-07-25T14:25:51.641Z,99398.88
2023-07-25T14:28:54.331Z,99405.06
2023-07-25T14:31:57.180Z,99420.59
2023-07-25T14:35:00.102Z,99414.72
2023-07-25T14:38:03.250Z,99433.31
2023-07-25T14:41:07.562Z,99405.38
2023-07-25T14:44:10.427Z,99401.81
2023-07-25T14:47:13.241Z,99399.16
2023-07-25T14:50:16.058Z,99385.25
2023-07-25T14:53:19.244Z,99375.81
2023-07-25T14:56:22.060Z,99376.72
2023-07-25T14:59:24.838Z,99374.47
2023-07-25T15:02:27.929Z,99369.25
2023-07-25T15:05:30.879Z,99370.50
2023-07-25T15:08:33.734Z,99373.22
2023-07-25T15:11:39.759Z,99385.47
2023-07-25T15:14:42.552Z,99399.09
2023-07-25T15:17:45.451Z,99384.56
2023-07-25T15:20:48.256Z,99380.50
2023-07-25T15:23:50.998Z,99372.59
2023-07-25T15:26:53.867Z,99380.53
2023-07-25T15:29:57.654Z,99372.97
2023-07-25T15:33:00.558Z,99355.44
2023-07-25T15:36:03.556Z,99341.56
2023-07-25T15:39:06.306Z,99346.66
2023-07-25T15:42:09.098Z,99333.22
2023-07-25T15:45:11.863Z,99321.09
2023-07-25T15:48:14.776Z,99324.25
2023-07-25T15:51:18.116Z,99320.53
2023-07-25T15:54:20.902Z,99329.38
2023-07-25T15:57:23.620Z,99327.97
2023-07-25T16:00:26.760Z,99339.75
2023-07-25T16:03:29.623Z,99329.91
2023-07-25T16:06:32.478Z,99342.44
2023-07-25T16:09:35.279Z,99337.44
2023-07-25T16:12:38.115Z,99343.69
2023-07-25T16:15:40.946Z,99334.75
2023-07-25T16:18:44.073Z,99317.81
2023-07-25T16:21:46.917Z,99336.13
2023-07-25T16:24:49.796Z,99331.66
2023-07-25T16:27:53.279Z,99326.00
2023-07-25T16:31:11.556Z,99327.16
2023-07-25T16:34:18.965Z,99346.78
2023-07-25T16:37:21.712Z,99354.38
2023-07-25T16:40:24.449Z,99353.84
2023-07-25T16:43:30.030Z,99352.19
2023-07-25T16:46:32.856Z,99354.63
2023-07-25T16:49:35.752Z,99347.38
2023-07-25T16:52:39.122Z,99346.59
2023-07-25T16:55:41.867Z,99348.50
2023-07-25T16:58:44.631Z,99354.19
2023-07-25T17:01:50.758Z,99359.63
2023-07-25T17:05:02.145Z,99349.88
2023-07-25T17:08:08.174Z,99359.53
2023-07-25T17:15:04.624Z,99351.81
2023-07-25T17:18:07.549Z,99360.88
2023-07-25T17:21:16.358Z,99378.66
2023-07-25T17:24:22.566Z,99374.81
2023-07-25T17:27:25.944Z,99370.06
2023-07-25T17:30:30.830Z,99365.75
2023-07-25T17:33:33.897Z,99365.28
2023-07-25T17:36:36.951Z,99351.91
2023-07-25T17:39:39.688Z,99350.63
2023-07-25T17:42:42.727Z,99353.00
2023-07-25T17:45:45.670Z,99337.28
2023-07-25T17:48:48.509Z,99330.34
2023-07-25T17:51:51.266Z,99327.94
2023-07-25T17:54:54.157Z,99318.84
2023-07-25T17:57:57.010Z,99328.97
2023-07-25T18:01:00.101Z,99310.25
2023-07-25T18:04:05.137Z,99325.56
2023-07-25T18:07:07.940Z,99329.13
2023-07-25T18:10:10.906Z,99329.88
2023-07-25T18:13:14.025Z,99326.44
2023-07-25T18:16:16.811Z,99318.38
2023-07-25T18:19:19.578Z,99315.38
2023-07-25T18:22:23.027Z,99320.97
2023-07-25T18:25:25.856Z,99338.56
2023-07-25T18:28:29.032Z,99329.00
2023-07-25T18:31:32.096Z,99324.91
2023-07-25T18:34:35.198Z,99330.97
2023-07-25T18:37:37.946Z,99331.50
2023-07-25T18:40:40.913Z,99333.59
2023-07-25T18:43:43.673Z,99340.00
2023-07-25T18:46:46.491Z,99353.06
2023-07-25T18:49:49.374Z,99352.91
2023-07-25T18:52:52.214Z,99355.47
2023-07-25T18:55:54.996Z,99358.03
2023-07-25T18:58:57.781Z,99353.75
2023-07-25T19:02:00.705Z,99354.56
2023-07-25T19:05:03.643Z,99361.13
2023-07-25T19:08:06.448Z,99363.03
2023-07-25T19:11:09.316Z,99353.28
2023-07-25T19:14:12.075Z,99348.84
2023-07-25T19:17:14.889Z,99339.91
2023-07-25T19:20:17.939Z,99341.97
2023-07-25T19:23:26.438Z,99340.41
2023-07-25T19:26:30.840Z,99326.06
2023-07-25T19:29:34.073Z,99319.19
2023-07-25T19:32:37.636Z,99313.19
2023-07-25T19:35:42.660Z,99319.06
2023-07-25T19:38:45.657Z,99319.72
2023-07-25T19:41:49.647Z,99322.28
2023-07-25T19:44:53.895Z,99322.50
2023-07-25T19:47:58.685Z,99332.69
2023-07-25T19:51:12.328Z,99344.81
2023-07-25T19:54:15.266Z,99342.31
2023-07-25T19:57:18.196Z,99327.63
2023-07-25T20:00:21.117Z,99323.81
2023-07-25T20:03:24.122Z,99332.25
2023-07-25T20:06:27.198Z,99334.00
2023-07-25T20:09:30.064Z,99336.84
2023-07-25T20:12:32.853Z,99341.16
2023-07-25T20:15:35.712Z,99347.50
2023-07-25T20:18:38.532Z,99354.50
2023-07-25T20:21:45.954Z,99359.41
2023-07-25T20:24:48.745Z,99378.19
2023-07-25T20:27:51.595Z,99358.78
2023-07-25T20:30:54.341Z,99351.47
2023-07-25T20:33:57.496Z,99343.84
2023-07-25T20:37:00.954Z,99336.66
2023-07-25T20:40:06.453Z,99326.19
2023-07-25T20:43:10.698Z,99330.44
2023-07-25T20:46:14.011Z,99330.44
2023-07-25T20:49:16.955Z,99341.56
2023-07-25T20:52:19.743Z,99330.56
2023-07-25T20:55:22.556Z,99331.16
2023-07-25T20:58:25.873Z,99343.88
2023-07-25T21:01:28.654Z,99350.88
2023-07-25T21:04:31.440Z,99354.78
2023-07-25T21:07:34.601Z,99363.53
2023-07-25T21:10:37.342Z,99359.28
2023-07-25T21:13:41.309Z,99360.19
2023-07-25T21:16:44.120Z,99371.50
2023-07-25T21:19:46.987Z,99374.66
2023-07-25T21:22:50.606Z,99394.97
2023-07-25T21:25:53.415Z,99409.72
2023-07-25T21:28:56.405Z,99402.88
2023-07-25T21:31:59.288Z,99388.88
2023-07-25T21:35:02.186Z,99397.41
2023-07-25T21:38:05.137Z,99384.69
2023-07-25T21:41:09.773Z,99395.41
2023-07-25T21:44:12.983Z,99396.94
2023-07-25T21:47:15.808Z,99407.25
2023-07-25T21:50:18.525Z,99395.34
2023-07-25T21:53:21.356Z,99377.00
2023-07-25T21:56:24.144Z,99373.16
2023-07-25T21:59:26.957Z,99372.47
2023-07-25T22:02:29.964Z,99375.59
2023-07-25T22:05:32.770Z,99355.97
2023-07-25T22:08:36.647Z,99357.69
2023-07-25T22:11:39.493Z,99356.38
2023-07-25T22:14:42.340Z,99360.28
2023-07-25T22:17:45.167Z,99372.88
2023-07-25T22:20:52.441Z,99370.19
2023-07-25T22:23:56.047Z,99356.72
2023-07-25T22:26:58.995Z,99358.00
2023-07-25T22:30:01.837Z,99367.97
2023-07-25T22:33:04.824Z,99376.97
2023-07-25T22:36:08.316Z,99395.13
2023-07-25T22:39:11.151Z,99414.66
2023-07-25T22:42:15.110Z,99457.28
2023-07-25T22:45:17.882Z,99538.69
2023-07-25T22:48:20.699Z,99598.41
2023-07-25T22:51:23.598Z,99613.78
2023-07-25T22:54:27.330Z,99594.03
2023-07-25T22:57:30.231Z,99519.63
2023-07-25T23:00:33.075Z,99474.91
2023-07-25T23:03:37.690Z,99497.44
2023-07-25T23:06:40.507Z,99514.13
2023-07-25T23:09:43.248Z,99504.63
2023-07-25T23:12:48.753Z,99517.56
2023-07-25T23:15:51.670Z,99512.56
2023-07-25T23:18:55.038Z,99500.66
2023-07-25T23:21:57.773Z,99512.19
2023-07-25T23:25:00.651Z,99522.91
2023-07-25T23:28:03.538Z,99532.16
2023-07-25T23:31:06.526Z,99545.38
2023-07-25T23:34:09.370Z,99547.31
2023-07-25T23:37:12.298Z,99559.91
2023-07-25T23:40:15.178Z,99567.09
2023-07-25T23:43:18.072Z,99573.50
2023-07-25T23:46:20.850Z,99552.84
2023-07-25T23:49:23.702Z,99537.94
2023-07-25T23:52:26.562Z,99547.81
2023-07-25T23:55:29.450Z,99567.72
2023-07-25T23:58:32.398Z,99598.97
